Time;durP1;ratioP1;P1;durP2;ratioP2;P2;SDS_P1;SDS_P2;PMS_P1;PMS_P2;Temp;Humidity;BMP_temperature;BMP_pressure;BME280_temperature;BME280_humidity;BME280_pressure;Samples;Min_cycle;Max_cycle;Signal;HPM_P1;HPM_P2
2022/03/10 00:00:41;;;;;;;11.73;7.05;;;;;;;;;;10302001;28;20023;-48
2022/03/10 00:05:42;;;;;;;9.25;6.60;;;;;;;;;;10306119;28;20437;-49
2022/03/10 00:10:42;;;;;;;11.50;6.97;;;;;;;;;;10318978;28;20100;-49
2022/03/10 00:15:42;;;;;;;9.70;7.00;;;;;;;;;;10358687;28;20477;-50
2022/03/10 00:20:43;;;;;;;10.23;6.63;;;;;;;;;;10336606;28;20477;-47
2022/03/10 00:25:43;;;;;;;12.60;6.80;;;;;;;;;;10356907;28;20535;-49
2022/03/10 00:30:44;;;;;;;10.77;7.13;;;;;;;;;;10335918;28;20034;-48
2022/03/10 00:35:44;;;;;;;11.53;7.43;;;;;;;;;;10359065;28;20030;-50
2022/03/10 00:40:45;;;;;;;11.73;6.77;;;;;;;;;;10336952;28;20476;-50
2022/03/10 00:45:45;;;;;;;9.20;6.80;;;;;;;;;;10344148;28;20855;-48
2022/03/10 00:50:46;;;;;;;10.23;6.93;;;;;;;;;;10328395;28;20722;-49
2022/03/10 00:55:46;;;;;;;12.23;6.80;;;;;;;;;;10347878;28;20026;-50
2022/03/10 01:00:46;;;;;;;10.02;6.55;;;;;;;;;;10322079;28;20472;-49
2022/03/10 01:05:47;;;;;;;12.60;6.83;;;;;;;;;;10342398;28;20030;-50
2022/03/10 01:10:47;;;;;;;11.13;7.20;;;;;;;;;;10340960;28;20461;-48
2022/03/10 01:15:47;;;;;;;9.47;6.73;;;;;;;;;;10350205;28;20819;-50
2022/03/10 01:20:48;;;;;;;11.70;6.93;;;;;;;;;;10343046;28;20472;-47
2022/03/10 01:25:48;;;;;;;9.47;7.33;;;;;;;;;;10349033;28;20041;-50
2022/03/10 01:30:48;;;;;;;9.40;6.67;;;;;;;;;;10342491;28;20507;-53
2022/03/10 01:35:49;;;;;;;9.57;6.63;;;;;;;;;;10340541;28;20034;-51
2022/03/10 01:40:49;;;;;;;7.70;6.20;;;;;;;;;;10343323;28;20450;-52
2022/03/10 01:45:50;;;;;;;10.73;7.00;;;;;;;;;;10349408;28;20467;-50
2022/03/10 01:50:50;;;;;;;8.97;6.77;;;;;;;;;;10328154;28;20513;-51
2022/03/10 01:55:51;;;;;;;8.48;6.18;;;;;;;;;;10339774;28;20040;-50
2022/03/10 02:00:51;;;;;;;11.65;7.15;;;;;;;;;;10342101;28;20037;-49
2022/03/10 02:05:53;;;;;;;12.07;7.10;;;;;;;;;;10326754;28;20405;-52
2022/03/10 02:10:53;;;;;;;8.77;6.90;;;;;;;;;;10339479;28;20543;-51
2022/03/10 02:21:14;;;;;;;;;;;;;;;;;;10338087;28;20042;-52
2022/03/10 02:26:15;;;;;;;7.45;6.05;;;;;;;;;;10315008;28;19925;-53
2022/03/10 02:31:15;;;;;;;8.95;6.40;;;;;;;;;;10342608;28;20042;-48
2022/03/10 02:36:16;;;;;;;8.15;6.18;;;;;;;;;;10337292;28;20409;-47
2022/03/10 02:41:16;;;;;;;8.27;6.50;;;;;;;;;;10330488;28;20026;-48
2022/03/10 02:46:17;;;;;;;9.67;6.93;;;;;;;;;;10337431;28;20116;-48
2022/03/10 02:51:17;;;;;;;9.93;6.23;;;;;;;;;;10334838;28;20475;-48
2022/03/10 02:56:17;;;;;;;9.97;7.03;;;;;;;;;;10340499;28;20107;-50
2022/03/10 03:01:18;;;;;;;9.38;6.63;;;;;;;;;;10328797;28;20034;-47
2022/03/10 03:06:19;;;;;;;8.30;6.53;;;;;;;;;;10336668;28;20040;-48
2022/03/10 03:11:19;;;;;;;10.52;7.80;;;;;;;;;;10328933;28;20819;-48
2022/03/10 03:16:20;;;;;;;8.00;6.67;;;;;;;;;;10349421;28;20052;-47
2022/03/10 03:21:20;;;;;;;9.77;6.70;;;;;;;;;;10333821;28;21021;-47
2022/03/10 03:26:21;;;;;;;10.65;6.82;;;;;;;;;;10348347;28;20418;-48
2022/03/10 03:31:21;;;;;;;13.27;6.67;;;;;;;;;;10342457;28;20022;-48
2022/03/10 03:36:22;;;;;;;9.77;6.97;;;;;;;;;;10348916;28;20883;-48
2022/03/10 03:41:22;;;;;;;10.63;6.95;;;;;;;;;;10345062;28;20034;-50
2022/03/10 03:46:22;;;;;;;8.83;6.17;;;;;;;;;;10345395;28;20031;-47
2022/03/10 03:51:23;;;;;;;10.33;7.20;;;;;;;;;;10347623;28;20460;-47
2022/03/10 03:56:23;;;;;;;7.97;6.20;;;;;;;;;;10360454;28;20026;-48
2022/03/10 04:01:23;;;;;;;9.73;6.25;;;;;;;;;;10331784;28;20463;-47
2022/03/10 04:06:24;;;;;;;7.93;6.20;;;;;;;;;;10333296;28;20120;-48
2022/03/10 04:11:24;;;;;;;8.40;6.45;;;;;;;;;;10340639;28;20459;-52
2022/03/10 04:16:25;;;;;;;9.70;6.63;;;;;;;;;;10349580;28;20026;-48
2022/03/10 04:21:25;;;;;;;10.32;6.78;;;;;;;;;;10337784;28;20529;-47
2022/03/10 04:26:26;;;;;;;11.80;7.15;;;;;;;;;;10347849;28;20482;-50
2022/03/10 04:31:26;;;;;;;9.67;6.80;;;;;;;;;;10342201;28;20026;-48
2022/03/10 04:36:27;;;;;;;9.27;6.30;;;;;;;;;;10349302;28;20476;-52
2022/03/10 04:41:27;;;;;;;9.67;6.40;;;;;;;;;;10339884;28;20030;-52
2022/03/10 04:46:28;;;;;;;7.95;6.22;;;;;;;;;;10346076;28;20468;-48
2022/03/10 04:51:28;;;;;;;8.73;6.57;;;;;;;;;;10336145;28;20026;-48
2022/03/10 04:56:28;;;;;;;9.50;6.10;;;;;;;;;;10345431;28;20385;-49
2022/03/10 05:01:29;;;;;;;8.47;6.40;;;;;;;;;;10335768;28;20455;-50
2022/03/10 05:06:29;;;;;;;10.63;6.28;;;;;;;;;;10334265;28;20034;-50
2022/03/10 05:11:30;;;;;;;6.85;5.65;;;;;;;;;;10341095;28;20029;-52
2022/03/10 05:16:30;;;;;;;10.43;7.00;;;;;;;;;;10344132;28;20030;-48
2022/03/10 05:21:31;;;;;;;7.85;6.07;;;;;;;;;;10346462;28;20468;-50
2022/03/10 05:26:31;;;;;;;8.93;6.57;;;;;;;;;;10330460;28;20030;-47
2022/03/10 05:31:31;;;;;;;8.93;6.30;;;;;;;;;;10345876;28;20495;-50
2022/03/10 05:36:34;;;;;;;8.57;6.20;;;;;;;;;;10335141;28;20108;-49
2022/03/10 05:41:34;;;;;;;9.00;6.20;;;;;;;;;;10345339;28;20459;-52
2022/03/10 05:46:35;;;;;;;9.60;6.53;;;;;;;;;;10342004;28;20041;-54
2022/03/10 05:51:36;;;;;;;8.77;6.40;;;;;;;;;;10345271;28;20037;-52
2022/03/10 05:56:36;;;;;;;9.43;6.43;;;;;;;;;;10337523;28;20029;-51
2022/03/10 06:01:36;;;;;;;6.87;5.47;;;;;;;;;;10347710;28;20584;-51
2022/03/10 06:06:37;;;;;;;9.20;6.17;;;;;;;;;;10356457;28;20539;-52
2022/03/10 06:11:37;;;;;;;8.37;6.07;;;;;;;;;;10341027;28;20050;-53
2022/03/10 06:16:38;;;;;;;9.10;6.33;;;;;;;;;;10333636;28;20461;-48
2022/03/10 06:21:38;;;;;;;8.75;6.63;;;;;;;;;;10343973;28;20545;-48
2022/03/10 06:26:39;;;;;;;8.65;5.63;;;;;;;;;;10324339;28;20038;-48
2022/03/10 06:31:40;;;;;;;8.40;6.78;;;;;;;;;;10340048;28;20022;-48
2022/03/10 06:36:40;;;;;;;10.82;6.00;;;;;;;;;;10333565;28;20053;-48
2022/03/10 06:41:41;;;;;;;7.10;6.20;;;;;;;;;;10343058;28;20077;-47
2022/03/10 06:46:41;;;;;;;8.10;6.28;;;;;;;;;;10335981;28;20563;-48
2022/03/10 06:51:41;;;;;;;8.50;6.07;;;;;;;;;;10328114;28;20030;-47
2022/03/10 06:56:42;;;;;;;8.17;6.43;;;;;;;;;;10331581;28;20045;-47
2022/03/10 07:01:42;;;;;;;9.45;6.50;;;;;;;;;;10326358;28;20499;-48
2022/03/10 07:06:43;;;;;;;9.88;6.65;;;;;;;;;;10326785;28;20331;-49
2022/03/10 07:11:43;;;;;;;8.88;6.30;;;;;;;;;;10327441;28;20496;-60
2022/03/10 07:16:44;;;;;;;7.00;5.63;;;;;;;;;;10345239;28;20022;-47
2022/03/10 07:21:45;;;;;;;11.52;6.60;;;;;;;;;;10330492;28;20200;-47
2022/03/10 07:26:45;;;;;;;9.57;6.93;;;;;;;;;;10335186;28;20169;-59
2022/03/10 07:31:45;;;;;;;12.17;7.03;;;;;;;;;;10336159;28;20030;-48
2022/03/10 07:36:46;;;;;;;15.47;8.93;;;;;;;;;;10316188;28;20472;-53
2022/03/10 07:41:46;;;;;;;16.07;8.20;;;;;;;;;;10335059;28;20031;-51
2022/03/10 07:46:47;;;;;;;17.40;8.43;;;;;;;;;;10311459;28;20250;-51
2022/03/10 07:51:47;;;;;;;10.93;7.82;;;;;;;;;;10340151;28;21056;-58
2022/03/10 07:56:48;;;;;;;19.63;8.45;;;;;;;;;;10319228;28;20042;-59
2022/03/10 08:01:48;;;;;;;20.17;8.18;;;;;;;;;;10317318;28;20041;-52
2022/03/10 08:06:49;;;;;;;17.80;8.27;;;;;;;;;;10324834;28;20026;-49
2022/03/10 08:11:49;;;;;;;18.90;8.30;;;;;;;;;;10343586;28;20362;-49
2022/03/10 08:16:50;;;;;;;22.00;11.27;;;;;;;;;;10335909;28;20491;-52
2022/03/10 08:21:51;;;;;;;19.85;11.25;;;;;;;;;;10339182;28;20050;-56
2022/03/10 08:26:51;;;;;;;17.67;11.63;;;;;;;;;;10339308;28;20432;-50
2022/03/10 08:31:52;;;;;;;20.07;12.73;;;;;;;;;;10318597;28;20033;-61
2022/03/10 08:36:52;;;;;;;22.73;13.07;;;;;;;;;;10323362;28;20461;-66
2022/03/10 08:41:53;;;;;;;21.42;13.13;;;;;;;;;;10345897;28;20957;-64
2022/03/10 08:46:53;;;;;;;21.27;12.13;;;;;;;;;;10320790;28;20030;-65
2022/03/10 08:51:54;;;;;;;20.92;11.95;;;;;;;;;;10355532;28;20026;-63
2022/03/10 08:56:55;;;;;;;22.45;11.80;;;;;;;;;;10332678;28;20397;-62
2022/03/10 09:01:55;;;;;;;23.03;11.43;;;;;;;;;;10354522;28;20022;-59
2022/03/10 09:06:55;;;;;;;21.67;11.30;;;;;;;;;;10334130;28;20484;-61
2022/03/10 09:11:56;;;;;;;23.90;10.97;;;;;;;;;;10352993;28;20823;-60
2022/03/10 09:16:57;;;;;;;21.80;10.27;;;;;;;;;;10323967;28;20464;-52
2022/03/10 09:21:58;;;;;;;14.30;9.82;;;;;;;;;;10312130;28;20406;-69
2022/03/10 09:26:59;;;;;;;35.22;21.45;;;;;;;;;;10334554;28;20035;-65
2022/03/10 09:31:59;;;;;;;51.23;31.70;;;;;;;;;;10333777;28;20026;-71
2022/03/10 09:37:00;;;;;;;72.77;42.23;;;;;;;;;;10338060;28;20483;-67
2022/03/10 09:42:04;;;;;;;86.93;51.00;;;;;;;;;;10332549;28;20459;-65
2022/03/10 09:47:05;;;;;;;103.75;60.08;;;;;;;;;;10316977;28;20621;-65
2022/03/10 09:52:08;;;;;;;116.80;70.22;;;;;;;;;;10362093;28;20509;-67
2022/03/10 09:57:08;;;;;;;140.52;83.30;;;;;;;;;;10313466;28;20022;-65
2022/03/10 10:02:08;;;;;;;160.35;97.00;;;;;;;;;;10329944;28;20027;-65
2022/03/10 10:07:10;;;;;;;160.67;98.83;;;;;;;;;;10331423;28;20374;-61
2022/03/10 10:12:12;;;;;;;177.77;108.05;;;;;;;;;;10338363;28;20111;-58
2022/03/10 10:17:13;;;;;;;146.38;89.38;;;;;;;;;;10353465;28;20527;-61
2022/03/10 10:22:23;;;;;;;155.50;97.57;;;;;;;;;;10333008;28;20062;-52
2022/03/10 10:27:34;;;;;;;169.40;103.32;;;;;;;;;;10327351;28;20385;-67
2022/03/10 10:32:36;;;;;;;185.10;109.93;;;;;;;;;;10331982;28;20034;-63
2022/03/10 10:37:39;;;;;;;191.13;119.65;;;;;;;;;;10327241;28;20041;-59
2022/03/10 10:42:39;;;;;;;208.13;129.23;;;;;;;;;;10351874;28;20030;-68
2022/03/10 10:47:58;;;;;;;210.82;133.35;;;;;;;;;;10341198;28;20393;-59
2022/03/10 10:52:59;;;;;;;221.27;138.45;;;;;;;;;;10331619;28;20030;-61
2022/03/10 10:58:10;;;;;;;235.93;147.35;;;;;;;;;;10316169;28;20367;-52
2022/03/10 11:03:28;;;;;;;247.70;158.95;;;;;;;;;;10337592;28;20124;-51
2022/03/10 11:08:29;;;;;;;259.00;169.07;;;;;;;;;;10333297;28;20038;-54
2022/03/10 11:13:29;;;;;;;273.38;179.07;;;;;;;;;;10341151;28;20067;-68
2022/03/10 11:18:31;;;;;;;270.15;179.75;;;;;;;;;;10347457;28;20129;-53
2022/03/10 11:23:34;;;;;;;278.73;190.00;;;;;;;;;;10331703;28;20038;-61
2022/03/10 11:28:36;;;;;;;283.92;187.32;;;;;;;;;;10345957;28;20046;-66
2022/03/10 11:33:38;;;;;;;240.20;155.00;;;;;;;;;;10342293;28;20105;-59
2022/03/10 11:38:57;;;;;;;247.52;161.20;;;;;;;;;;10345970;28;20401;-59
2022/03/10 11:44:00;;;;;;;259.08;171.40;;;;;;;;;;10338717;28;20042;-61
2022/03/10 11:49:09;;;;;;;270.88;181.18;;;;;;;;;;10341781;28;20125;-52
2022/03/10 11:54:11;;;;;;;279.65;193.80;;;;;;;;;;10342881;28;20065;-59
2022/03/10 11:59:25;;;;;;;279.70;197.18;;;;;;;;;;10333047;28;20040;-54
2022/03/10 12:04:35;;;;;;;302.30;209.20;;;;;;;;;;10327785;28;20066;-56
2022/03/10 12:09:41;;;;;;;305.77;215.23;;;;;;;;;;10326650;28;20482;-53
2022/03/10 12:14:44;;;;;;;322.92;223.82;;;;;;;;;;10346697;28;20537;-61
2022/03/10 12:20:10;;;;;;;338.60;242.40;;;;;;;;;;10341662;28;20038;-56
2022/03/10 12:25:21;;;;;;;341.33;246.75;;;;;;;;;;10340190;28;20028;-58
2022/03/10 12:30:26;;;;;;;359.33;254.95;;;;;;;;;;10335213;28;20038;-55
2022/03/10 12:35:35;;;;;;;347.77;255.88;;;;;;;;;;10344550;28;20087;-60
2022/03/10 12:40:38;;;;;;;330.65;239.77;;;;;;;;;;10334063;28;20125;-55
2022/03/10 12:45:46;;;;;;;329.15;236.73;;;;;;;;;;10321340;28;20033;-61
2022/03/10 12:50:46;;;;;;;316.52;231.30;;;;;;;;;;10325140;28;20034;-56
2022/03/10 12:55:54;;;;;;;318.75;228.40;;;;;;;;;;10299213;28;20482;-57
2022/03/10 13:01:06;;;;;;;308.47;219.10;;;;;;;;;;10304992;28;20496;-55
2022/03/10 13:06:08;;;;;;;311.50;212.90;;;;;;;;;;10308590;28;20498;-52
2022/03/10 13:11:10;;;;;;;293.70;207.23;;;;;;;;;;10320118;28;20029;-60
2022/03/10 13:16:10;;;;;;;287.13;203.73;;;;;;;;;;10329958;28;20029;-56
2022/03/10 13:21:11;;;;;;;291.07;201.83;;;;;;;;;;10339126;28;20053;-71
2022/03/10 13:26:11;;;;;;;282.17;200.02;;;;;;;;;;10326832;28;20567;-54
2022/03/10 13:31:12;;;;;;;275.53;195.60;;;;;;;;;;10330045;28;20054;-69
2022/03/10 13:36:14;;;;;;;278.48;191.40;;;;;;;;;;10345917;28;20030;-51
2022/03/10 13:41:14;;;;;;;258.40;181.35;;;;;;;;;;10317898;28;20055;-51
2022/03/10 13:46:17;;;;;;;260.77;180.07;;;;;;;;;;10304730;28;20031;-61
2022/03/10 13:51:22;;;;;;;251.57;179.73;;;;;;;;;;10302739;28;20468;-59
2022/03/10 13:56:35;;;;;;;253.05;174.35;;;;;;;;;;10299835;28;20036;-52
2022/03/10 14:01:37;;;;;;;246.30;172.82;;;;;;;;;;10296586;28;20019;-58
2022/03/10 14:06:44;;;;;;;247.32;169.25;;;;;;;;;;10307361;28;20050;-56
2022/03/10 14:11:46;;;;;;;244.80;169.48;;;;;;;;;;10311284;28;20117;-50
2022/03/10 14:16:51;;;;;;;237.45;170.32;;;;;;;;;;10316733;28;20457;-65
2022/03/10 14:21:52;;;;;;;235.38;161.50;;;;;;;;;;10300366;28;20046;-60
2022/03/10 14:26:53;;;;;;;239.57;166.02;;;;;;;;;;10292216;28;20496;-56
2022/03/10 14:31:54;;;;;;;236.35;160.93;;;;;;;;;;10298164;28;20031;-55
2022/03/10 14:36:54;;;;;;;231.48;159.27;;;;;;;;;;10297785;28;20022;-63
2022/03/10 14:41:55;;;;;;;234.33;159.07;;;;;;;;;;10299695;28;20027;-52
2022/03/10 14:46:56;;;;;;;223.60;153.75;;;;;;;;;;10310816;28;20483;-58
2022/03/10 14:51:56;;;;;;;223.45;151.27;;;;;;;;;;10295565;28;20023;-59
2022/03/10 14:56:57;;;;;;;224.38;149.13;;;;;;;;;;10296939;28;20092;-56
2022/03/10 15:01:57;;;;;;;215.73;147.97;;;;;;;;;;10297904;28;20072;-50
2022/03/10 15:06:57;;;;;;;211.63;144.80;;;;;;;;;;10302993;28;20583;-54
2022/03/10 15:11:58;;;;;;;143.00;95.83;;;;;;;;;;10324701;28;20463;-54
2022/03/10 15:16:59;;;;;;;118.90;78.40;;;;;;;;;;10327600;28;20034;-50
2022/03/10 15:21:59;;;;;;;115.03;79.13;;;;;;;;;;10346836;28;20130;-54
2022/03/10 15:27:01;;;;;;;116.77;77.50;;;;;;;;;;10321323;28;20130;-54
2022/03/10 15:32:03;;;;;;;113.47;75.68;;;;;;;;;;10318208;28;20529;-54
2022/03/10 15:37:04;;;;;;;110.18;75.93;;;;;;;;;;10337607;28;20058;-51
2022/03/10 15:42:04;;;;;;;104.28;73.53;;;;;;;;;;10335640;28;20117;-61
2022/03/10 15:47:05;;;;;;;106.03;73.65;;;;;;;;;;10349657;28;20505;-51
2022/03/10 15:52:05;;;;;;;102.43;73.57;;;;;;;;;;10331879;28;20022;-56
2022/03/10 15:57:06;;;;;;;104.97;71.57;;;;;;;;;;10342464;28;20041;-61
2022/03/10 16:02:06;;;;;;;107.70;73.88;;;;;;;;;;10346026;28;20034;-49
2022/03/10 16:07:07;;;;;;;103.03;72.20;;;;;;;;;;10319159;28;20038;-59
2022/03/10 16:12:08;;;;;;;105.88;72.97;;;;;;;;;;10330303;28;20466;-54
2022/03/10 16:17:10;;;;;;;105.75;72.88;;;;;;;;;;10337175;28;20028;-58
2022/03/10 16:22:11;;;;;;;101.00;70.40;;;;;;;;;;10352316;28;20034;-53
2022/03/10 16:27:11;;;;;;;95.18;69.07;;;;;;;;;;10334702;28;20038;-55
2022/03/10 16:32:12;;;;;;;98.95;68.38;;;;;;;;;;10328137;28;20041;-53
2022/03/10 16:37:12;;;;;;;95.30;66.33;;;;;;;;;;10331276;28;20022;-65
2022/03/10 16:42:15;;;;;;;94.60;65.43;;;;;;;;;;10326831;28;20490;-65
2022/03/10 16:47:16;;;;;;;95.38;65.30;;;;;;;;;;10310800;28;20601;-65
2022/03/10 16:52:17;;;;;;;92.72;65.53;;;;;;;;;;10347778;28;20120;-66
2022/03/10 16:57:17;;;;;;;96.32;65.68;;;;;;;;;;10341161;28;20022;-68
2022/03/10 17:02:22;;;;;;;96.93;67.10;;;;;;;;;;10332660;28;20084;-68
2022/03/10 17:07:22;;;;;;;95.35;65.25;;;;;;;;;;10327625;28;20484;-64
2022/03/10 17:12:22;;;;;;;90.90;64.60;;;;;;;;;;10324519;28;20026;-64
2022/03/10 17:17:23;;;;;;;92.57;63.60;;;;;;;;;;10319868;28;20543;-68
2022/03/10 17:22:23;;;;;;;92.53;64.00;;;;;;;;;;10329990;28;20109;-61
2022/03/10 17:27:26;;;;;;;89.88;61.95;;;;;;;;;;10326213;28;20034;-61
2022/03/10 17:32:26;;;;;;;95.47;63.45;;;;;;;;;;10302472;28;20046;-62
2022/03/10 17:37:27;;;;;;;91.75;63.35;;;;;;;;;;10326052;28;20026;-59
2022/03/10 17:42:32;;;;;;;85.85;58.75;;;;;;;;;;10324190;28;20426;-53
2022/03/10 17:47:32;;;;;;;90.78;61.70;;;;;;;;;;10335892;28;20445;-58
2022/03/10 17:52:34;;;;;;;86.53;59.88;;;;;;;;;;10333022;28;20022;-50
2022/03/10 17:57:34;;;;;;;83.88;58.10;;;;;;;;;;10335213;28;20278;-62
2022/03/10 18:02:34;;;;;;;83.07;57.33;;;;;;;;;;10341667;28;20316;-60
2022/03/10 18:07:35;;;;;;;84.13;57.83;;;;;;;;;;10328385;28;20522;-57
2022/03/10 18:12:35;;;;;;;78.73;55.50;;;;;;;;;;10315767;28;20117;-62
2022/03/10 18:17:36;;;;;;;74.47;53.67;;;;;;;;;;10333486;28;20081;-61
2022/03/10 18:22:36;;;;;;;76.10;53.45;;;;;;;;;;10322012;28;20030;-61
2022/03/10 18:27:37;;;;;;;81.68;55.95;;;;;;;;;;10339069;28;20656;-66
2022/03/10 18:32:38;;;;;;;75.88;53.85;;;;;;;;;;10311575;28;20026;-66
2022/03/10 18:37:39;;;;;;;73.32;53.25;;;;;;;;;;10305965;28;20523;-59
2022/03/10 18:42:40;;;;;;;74.03;53.50;;;;;;;;;;10316393;28;20660;-65
2022/03/10 18:47:40;;;;;;;70.37;50.23;;;;;;;;;;10320159;28;20267;-66
2022/03/10 18:52:41;;;;;;;74.47;51.95;;;;;;;;;;10295762;28;21029;-56
2022/03/10 18:57:41;;;;;;;71.68;51.03;;;;;;;;;;10313467;28;20031;-67
2022/03/10 19:02:44;;;;;;;71.20;51.70;;;;;;;;;;10329788;28;20483;-62
2022/03/10 19:07:45;;;;;;;71.90;49.88;;;;;;;;;;10329687;28;20034;-55
2022/03/10 19:12:45;;;;;;;58.42;41.38;;;;;;;;;;10318840;28;20098;-55
2022/03/10 19:17:46;;;;;;;48.75;36.38;;;;;;;;;;10304155;28;20043;-55
2022/03/10 19:22:51;;;;;;;44.30;33.00;;;;;;;;;;10311915;28;20030;-54
2022/03/10 19:27:51;;;;;;;44.05;31.52;;;;;;;;;;10325950;28;20030;-54
2022/03/10 19:32:52;;;;;;;41.85;29.48;;;;;;;;;;10299213;28;20026;-56
2022/03/10 19:37:52;;;;;;;42.63;28.47;;;;;;;;;;10330269;28;20082;-54
2022/03/10 19:42:53;;;;;;;37.83;26.33;;;;;;;;;;10349918;28;20606;-56
2022/03/10 19:47:53;;;;;;;34.17;24.67;;;;;;;;;;10328108;28;20042;-54
2022/03/10 19:52:54;;;;;;;31.13;22.95;;;;;;;;;;10344449;28;20029;-58
2022/03/10 19:57:57;;;;;;;32.40;23.30;;;;;;;;;;10334564;28;20018;-55
2022/03/10 20:02:58;;;;;;;38.55;23.70;;;;;;;;;;10350324;28;20107;-56
2022/03/10 20:07:59;;;;;;;33.30;22.83;;;;;;;;;;10339051;28;20034;-56
2022/03/10 20:12:59;;;;;;;29.30;22.20;;;;;;;;;;10328187;28;20169;-56
2022/03/10 20:18:01;;;;;;;31.55;22.42;;;;;;;;;;10317754;28;20182;-51
2022/03/10 20:23:01;;;;;;;29.05;21.33;;;;;;;;;;10310539;28;20042;-56
2022/03/10 20:28:01;;;;;;;28.00;20.73;;;;;;;;;;10303349;28;20046;-55
2022/03/10 20:33:02;;;;;;;25.50;19.43;;;;;;;;;;10307974;28;20456;-54
2022/03/10 20:38:03;;;;;;;33.50;21.45;;;;;;;;;;10319897;28;20471;-56
2022/03/10 20:43:04;;;;;;;26.58;20.73;;;;;;;;;;10306167;28;20184;-54
2022/03/10 20:48:04;;;;;;;27.90;19.60;;;;;;;;;;10322137;28;20030;-55
2022/03/10 20:53:05;;;;;;;30.13;19.42;;;;;;;;;;10323668;28;20045;-57
2022/03/10 20:58:06;;;;;;;26.63;19.00;;;;;;;;;;10321155;28;20109;-55
2022/03/10 21:03:06;;;;;;;27.20;19.17;;;;;;;;;;10316148;28;20045;-55
2022/03/10 21:08:07;;;;;;;25.63;18.50;;;;;;;;;;10334014;28;20030;-55
2022/03/10 21:13:07;;;;;;;26.92;18.25;;;;;;;;;;10328414;28;20462;-54
2022/03/10 21:18:07;;;;;;;26.30;18.60;;;;;;;;;;10316805;28;20050;-54
2022/03/10 21:23:08;;;;;;;22.60;17.50;;;;;;;;;;10326434;28;20456;-55
2022/03/10 21:28:08;;;;;;;26.07;17.57;;;;;;;;;;10331885;28;20104;-55
2022/03/10 21:33:09;;;;;;;27.03;17.33;;;;;;;;;;10314065;28;20465;-55
2022/03/10 21:38:10;;;;;;;24.40;17.10;;;;;;;;;;10329802;28;20474;-56
2022/03/10 21:43:10;;;;;;;23.87;16.53;;;;;;;;;;10338669;28;20084;-55
2022/03/10 21:48:10;;;;;;;21.52;15.98;;;;;;;;;;10316756;28;20483;-55
2022/03/10 21:53:11;;;;;;;23.33;16.47;;;;;;;;;;10341870;28;20105;-53
2022/03/10 21:58:11;;;;;;;24.60;16.05;;;;;;;;;;10337107;28;20471;-54
2022/03/10 22:03:12;;;;;;;25.67;15.63;;;;;;;;;;10329641;28;20466;-55
2022/03/10 22:08:12;;;;;;;25.73;15.37;;;;;;;;;;10287421;28;20475;-54
2022/03/10 22:13:13;;;;;;;20.92;16.02;;;;;;;;;;10306283;28;20038;-50
2022/03/10 22:18:13;;;;;;;26.33;16.45;;;;;;;;;;10328582;28;20045;-51
2022/03/10 22:23:15;;;;;;;23.25;16.25;;;;;;;;;;10294875;28;20046;-51
2022/03/10 22:28:15;;;;;;;25.17;17.63;;;;;;;;;;10300129;28;20508;-51
2022/03/10 22:33:16;;;;;;;25.57;15.93;;;;;;;;;;10327123;28;20343;-49
2022/03/10 22:38:16;;;;;;;27.80;16.27;;;;;;;;;;10333635;28;20534;-53
2022/03/10 22:43:17;;;;;;;23.90;16.77;;;;;;;;;;10333755;28;20030;-51
2022/03/10 22:48:17;;;;;;;25.45;17.20;;;;;;;;;;10330680;28;20095;-53
2022/03/10 22:58:37;;;;;;;23.10;17.27;;;;;;;;;;10330806;28;20599;-54
2022/03/10 23:03:38;;;;;;;26.67;16.95;;;;;;;;;;10322243;28;20030;-53
2022/03/10 23:08:38;;;;;;;24.02;16.92;;;;;;;;;;10314775;28;20208;-53
2022/03/10 23:13:39;;;;;;;25.13;16.50;;;;;;;;;;10310047;28;20034;-54
2022/03/10 23:18:39;;;;;;;23.93;16.53;;;;;;;;;;10317715;28;20070;-51
2022/03/10 23:23:39;;;;;;;23.50;16.92;;;;;;;;;;10327714;28;20480;-53
2022/03/10 23:28:40;;;;;;;21.70;16.40;;;;;;;;;;10318944;28;20093;-53
2022/03/10 23:33:40;;;;;;;25.57;16.07;;;;;;;;;;10323294;28;20731;-50
2022/03/10 23:38:41;;;;;;;21.63;15.90;;;;;;;;;;10311185;28;20074;-53
2022/03/10 23:43:41;;;;;;;27.07;16.33;;;;;;;;;;10316347;28;20026;-52
2022/03/10 23:48:42;;;;;;;25.27;15.60;;;;;;;;;;10321905;28;20482;-54
2022/03/10 23:53:42;;;;;;;24.07;16.33;;;;;;;;;;10321799;28;20470;-54
2022/03/10 23:58:42;;;;;;;25.67;16.87;;;;;;;;;;10325807;28;20452;-49
